Time;durP1;ratioP1;P1;durP2;ratioP2;P2;SDS_P1;SDS_P2;PMS_P1;PMS_P2;Temp;Humidity;BMP_temperature;BMP_pressure;BME280_temperature;BME280_humidity;BME280_pressure;Samples;Min_cycle;Max_cycle;Signal;HPM_P1;HPM_P2
2022/08/21 00:02:03;;;;;;;0.75;0.68;;;21.40;99.90;;;;;;5005293;28;20221;-76
2022/08/21 00:04:35;;;;;;;1.90;0.77;;;21.40;99.90;;;;;;5005729;28;20224;-75
2022/08/21 00:07:03;;;;;;;0.60;0.60;;;21.40;99.90;;;;;;5004156;28;20197;-75
2022/08/21 00:09:32;;;;;;;0.47;0.47;;;21.40;99.90;;;;;;5004190;28;20224;-75
2022/08/21 00:12:01;;;;;;;0.60;0.60;;;21.30;99.90;;;;;;5004154;28;20223;-74
2022/08/21 00:14:29;;;;;;;1.42;0.70;;;21.30;99.90;;;;;;5004535;28;20311;-77
2022/08/21 00:16:56;;;;;;;0.60;0.60;;;21.20;99.90;;;;;;5004225;28;20227;-73
2022/08/21 00:19:24;;;;;;;0.50;0.50;;;21.20;99.90;;;;;;5009562;28;20204;-75
2022/08/21 00:21:53;;;;;;;0.60;0.60;;;21.20;99.90;;;;;;5010524;28;20646;-75
2022/08/21 00:24:24;;;;;;;0.50;0.50;;;21.10;99.90;;;;;;5010411;28;20207;-75
2022/08/21 00:26:52;;;;;;;0.40;0.40;;;21.10;99.90;;;;;;5011908;28;20200;-74
2022/08/21 00:29:19;;;;;;;0.60;0.60;;;21.10;99.90;;;;;;5010107;28;20258;-75
2022/08/21 00:31:47;;;;;;;0.60;0.60;;;21.00;99.90;;;;;;5010620;28;20224;-75
2022/08/21 00:34:14;;;;;;;0.60;0.60;;;20.90;99.90;;;;;;5012072;28;20671;-74
2022/08/21 00:36:42;;;;;;;1.98;0.50;;;20.90;99.90;;;;;;5011324;28;20207;-76
2022/08/21 00:39:10;;;;;;;0.57;0.57;;;20.90;99.90;;;;;;5012262;28;20203;-76
2022/08/21 00:41:39;;;;;;;0.50;0.50;;;20.90;99.90;;;;;;5009212;28;20231;-76
2022/08/21 00:44:10;;;;;;;0.50;0.50;;;20.90;99.90;;;;;;5011108;28;20672;-76
2022/08/21 00:46:39;;;;;;;0.77;0.70;;;20.90;99.90;;;;;;5011977;28;20235;-77
2022/08/21 00:49:07;;;;;;;0.70;0.70;;;20.80;99.90;;;;;;5008593;28;20207;-78
2022/08/21 00:51:39;;;;;;;0.60;0.60;;;20.90;99.90;;;;;;5011596;28;20231;-77
2022/08/21 00:54:08;;;;;;;0.70;0.70;;;20.80;99.90;;;;;;5011680;28;20303;-77
2022/08/21 00:56:37;;;;;;;0.65;0.65;;;20.80;99.90;;;;;;5010568;28;20621;-78
2022/08/21 00:59:05;;;;;;;0.70;0.70;;;20.80;99.90;;;;;;5009383;28;21032;-78
2022/08/21 01:01:32;;;;;;;0.70;0.70;;;20.90;99.90;;;;;;5011059;28;20224;-73
2022/08/21 01:03:59;;;;;;;0.73;0.73;;;20.80;99.90;;;;;;5012909;28;20210;-76
2022/08/21 01:06:26;;;;;;;0.60;0.60;;;20.80;99.90;;;;;;5009416;28;20222;-76
2022/08/21 01:08:53;;;;;;;0.80;0.80;;;20.80;99.90;;;;;;5013394;28;20299;-76
2022/08/21 01:11:21;;;;;;;0.63;0.63;;;20.70;99.90;;;;;;5012695;28;20602;-78
2022/08/21 01:13:51;;;;;;;0.75;0.73;;;20.60;99.90;;;;;;5013233;28;20203;-78
2022/08/21 01:16:21;;;;;;;0.77;0.77;;;20.50;99.90;;;;;;5008310;28;20311;-75
2022/08/21 01:18:49;;;;;;;0.68;0.68;;;20.40;99.90;;;;;;5009054;28;20196;-75
2022/08/21 01:21:20;;;;;;;0.45;0.45;;;20.40;99.90;;;;;;5008877;28;20309;-75
2022/08/21 01:23:50;;;;;;;0.68;0.68;;;20.40;99.90;;;;;;5009711;28;20626;-77
2022/08/21 01:26:20;;;;;;;0.60;0.60;;;20.40;99.90;;;;;;5008159;28;20212;-76
2022/08/21 01:28:55;;;;;;;0.60;0.60;;;20.40;99.90;;;;;;5009179;28;20200;-75
2022/08/21 01:31:26;;;;;;;0.52;0.52;;;20.40;99.90;;;;;;5005986;28;20231;-76
2022/08/21 01:33:53;;;;;;;0.68;0.68;;;20.50;99.90;;;;;;5010577;28;20201;-74
2022/08/21 01:36:22;;;;;;;0.50;0.50;;;20.50;99.90;;;;;;5007567;28;20216;-76
2022/08/21 01:38:49;;;;;;;0.77;0.77;;;20.50;99.90;;;;;;5007902;28;20204;-76
2022/08/21 01:41:17;;;;;;;0.60;0.60;;;20.50;99.90;;;;;;5008955;28;20911;-77
2022/08/21 01:43:44;;;;;;;0.70;0.70;;;20.50;99.90;;;;;;5010959;28;20563;-74
2022/08/21 01:46:12;;;;;;;0.60;0.60;;;20.40;99.90;;;;;;4999223;28;20765;-75
2022/08/21 01:48:40;;;;;;;0.40;0.40;;;20.40;99.90;;;;;;5009768;28;21591;-76
2022/08/21 01:51:07;;;;;;;0.60;0.60;;;20.40;99.90;;;;;;5010648;28;20232;-74
2022/08/21 01:53:37;;;;;;;0.57;0.57;;;20.40;99.90;;;;;;5010467;28;20203;-75
2022/08/21 01:56:07;;;;;;;0.70;0.70;;;20.40;99.90;;;;;;5014269;28;20220;-77
2022/08/21 01:58:34;;;;;;;0.63;0.63;;;20.40;99.90;;;;;;5010792;28;20200;-77
2022/08/21 02:01:01;;;;;;;0.60;0.60;;;20.30;99.90;;;;;;5010631;28;20224;-76
2022/08/21 02:03:29;;;;;;;0.55;0.55;;;20.30;99.90;;;;;;5009838;28;20220;-74
2022/08/21 02:05:56;;;;;;;0.88;0.60;;;20.30;99.90;;;;;;5010584;28;20602;-77
2022/08/21 02:08:25;;;;;;;0.60;0.60;;;20.30;99.90;;;;;;5010074;28;20204;-75
2022/08/21 02:10:53;;;;;;;1.15;0.55;;;20.30;99.90;;;;;;5010095;28;20567;-76
2022/08/21 02:13:21;;;;;;;0.60;0.60;;;20.20;99.90;;;;;;5011187;28;20578;-74
2022/08/21 02:15:48;;;;;;;0.60;0.60;;;20.20;99.90;;;;;;5009706;28;20220;-73
2022/08/21 02:18:15;;;;;;;0.60;0.60;;;20.30;99.90;;;;;;5005460;28;20200;-73
2022/08/21 02:20:46;;;;;;;0.60;0.60;;;20.30;99.90;;;;;;5009182;28;20215;-75
2022/08/21 02:23:14;;;;;;;0.55;0.55;;;20.30;99.90;;;;;;5008933;28;20193;-76
2022/08/21 02:25:41;;;;;;;0.75;0.75;;;20.30;99.90;;;;;;5009584;28;20216;-74
2022/08/21 02:28:14;;;;;;;0.50;0.50;;;20.20;99.90;;;;;;5009943;28;20208;-76
2022/08/21 02:30:43;;;;;;;0.60;0.60;;;20.20;99.90;;;;;;5009385;28;20224;-76
2022/08/21 02:33:11;;;;;;;0.60;0.60;;;20.20;99.90;;;;;;5010064;28;20690;-75
2022/08/21 02:35:41;;;;;;;0.70;0.70;;;20.10;99.90;;;;;;5009462;28;20682;-76
2022/08/21 02:38:14;;;;;;;0.50;0.50;;;20.10;99.90;;;;;;5009824;28;20232;-74
2022/08/21 02:40:43;;;;;;;0.70;0.70;;;20.00;99.90;;;;;;5009764;28;20216;-75
2022/08/21 02:43:12;;;;;;;0.60;0.60;;;19.90;99.90;;;;;;5010326;28;20211;-76
2022/08/21 02:45:40;;;;;;;0.73;0.73;;;19.90;99.90;;;;;;5011136;28;20220;-77
2022/08/21 02:48:10;;;;;;;0.65;0.65;;;19.90;99.90;;;;;;5009101;28;20196;-76
2022/08/21 02:50:43;;;;;;;0.47;0.47;;;20.00;99.90;;;;;;5010091;28;20840;-74
2022/08/21 02:53:16;;;;;;;0.70;0.70;;;20.00;99.90;;;;;;5010135;28;20216;-76
2022/08/21 02:55:44;;;;;;;0.50;0.50;;;20.00;99.90;;;;;;5010357;28;20235;-74
2022/08/21 02:58:14;;;;;;;0.60;0.60;;;20.00;99.90;;;;;;5008894;28;20216;-77
2022/08/21 03:00:43;;;;;;;0.63;0.63;;;20.00;99.90;;;;;;5009657;28;20223;-78
2022/08/21 03:03:12;;;;;;;1.13;1.00;;;20.00;99.90;;;;;;5008747;28;20204;-77
2022/08/21 03:05:39;;;;;;;0.93;0.90;;;20.00;99.90;;;;;;5009312;28;20224;-77
2022/08/21 03:08:10;;;;;;;0.60;0.60;;;20.00;99.90;;;;;;5009100;28;20892;-77
2022/08/21 03:10:39;;;;;;;0.50;0.50;;;19.90;99.90;;;;;;5009446;28;20228;-75
2022/08/21 03:13:06;;;;;;;0.50;0.50;;;19.90;99.90;;;;;;5009088;28;20221;-76
2022/08/21 03:15:36;;;;;;;0.50;0.50;;;19.80;99.90;;;;;;5009364;28;20216;-75
2022/08/21 03:18:06;;;;;;;0.73;0.73;;;19.80;99.90;;;;;;5005853;28;20229;-73
2022/08/21 03:20:36;;;;;;;0.70;0.70;;;19.80;99.90;;;;;;5009951;28;20224;-75
2022/08/21 03:23:05;;;;;;;0.40;0.40;;;19.70;99.90;;;;;;5019174;28;20239;-76
2022/08/21 03:25:35;;;;;;;0.60;0.60;;;19.60;99.90;;;;;;5018433;28;20223;-77
2022/08/21 03:28:03;;;;;;;0.60;0.60;;;19.60;99.90;;;;;;5023130;28;20224;-76
2022/08/21 03:30:31;;;;;;;0.70;0.70;;;19.60;99.90;;;;;;5019190;28;20216;-76
2022/08/21 03:32:59;;;;;;;0.63;0.63;;;19.60;99.90;;;;;;5020462;28;20255;-76
2022/08/21 03:35:27;;;;;;;0.73;0.73;;;19.60;99.90;;;;;;5017319;28;20466;-76
2022/08/21 03:37:55;;;;;;;1.00;0.70;;;19.60;99.90;;;;;;5018065;28;20212;-75
2022/08/21 03:40:24;;;;;;;0.70;0.70;;;19.60;99.90;;;;;;5019175;28;20243;-76
2022/08/21 03:42:51;;;;;;;0.70;0.70;;;19.60;99.90;;;;;;5021463;28;20298;-75
2022/08/21 03:45:20;;;;;;;0.60;0.60;;;19.60;99.90;;;;;;5022802;28;20227;-75
2022/08/21 03:47:57;;;;;;;0.52;0.52;;;19.60;99.90;;;;;;5014744;28;20197;-75
2022/08/21 03:50:27;;;;;;;0.60;0.60;;;19.60;99.90;;;;;;5017764;28;20318;-75
2022/08/21 03:52:54;;;;;;;0.60;0.50;;;19.70;99.90;;;;;;5010569;28;20747;-77
2022/08/21 03:55:21;;;;;;;1.25;0.75;;;19.60;99.90;;;;;;5008483;28;20222;-75
2022/08/21 03:57:48;;;;;;;0.50;0.50;;;19.60;99.90;;;;;;5007680;28;20685;-73
2022/08/21 04:00:18;;;;;;;0.98;0.80;;;19.60;99.90;;;;;;5006733;28;20230;-75
2022/08/21 04:02:46;;;;;;;0.68;0.68;;;19.50;99.90;;;;;;5007518;28;20258;-73
2022/08/21 04:05:26;;;;;;;0.73;0.73;;;19.50;99.90;;;;;;5008694;28;20212;-75
2022/08/21 04:07:56;;;;;;;0.70;0.70;;;19.50;99.90;;;;;;5005717;28;20219;-73
2022/08/21 04:10:25;;;;;;;0.60;0.60;;;19.50;99.90;;;;;;5008007;28;20216;-75
2022/08/21 04:12:52;;;;;;;0.70;0.70;;;19.50;99.90;;;;;;5006228;28;20282;-76
2022/08/21 04:15:20;;;;;;;0.60;0.60;;;19.50;99.90;;;;;;5006787;28;20236;-76
2022/08/21 04:17:48;;;;;;;0.82;0.82;;;19.50;99.90;;;;;;5008260;28;20223;-73
2022/08/21 04:20:15;;;;;;;0.70;0.70;;;19.50;99.90;;;;;;5008015;28;20220;-74
2022/08/21 04:22:44;;;;;;;0.95;0.63;;;19.40;99.90;;;;;;5007305;28;20602;-72
2022/08/21 04:25:13;;;;;;;0.70;0.70;;;19.40;99.90;;;;;;5008700;28;20227;-75
2022/08/21 04:27:41;;;;;;;0.60;0.60;;;19.40;99.90;;;;;;5008407;28;20196;-75
2022/08/21 04:30:10;;;;;;;0.60;0.60;;;19.40;99.90;;;;;;5005869;28;20230;-75
2022/08/21 04:32:37;;;;;;;0.68;0.68;;;19.50;99.90;;;;;;5009790;28;20231;-75
2022/08/21 04:35:07;;;;;;;0.98;0.80;;;19.40;99.90;;;;;;5003060;28;20227;-75
2022/08/21 04:37:34;;;;;;;0.52;0.52;;;19.40;99.90;;;;;;5005065;28;20598;-75
2022/08/21 04:40:02;;;;;;;1.55;0.75;;;19.30;99.90;;;;;;5006747;28;20231;-75
2022/08/21 04:42:30;;;;;;;0.60;0.60;;;19.30;99.90;;;;;;5009378;28;20216;-76
2022/08/21 04:44:57;;;;;;;0.60;0.60;;;19.30;99.90;;;;;;5008669;28;20216;-76
2022/08/21 04:47:25;;;;;;;1.67;0.70;;;19.30;99.90;;;;;;5006979;28;20196;-76
2022/08/21 04:49:52;;;;;;;0.70;0.70;;;19.30;99.90;;;;;;5007588;28;20223;-74
2022/08/21 04:52:23;;;;;;;0.90;0.90;;;19.40;99.90;;;;;;5007890;28;20224;-73
2022/08/21 04:54:52;;;;;;;0.70;0.70;;;19.40;99.90;;;;;;5008506;28;20219;-76
2022/08/21 04:57:20;;;;;;;0.57;0.57;;;19.50;99.90;;;;;;5005617;28;20213;-73
2022/08/21 04:59:51;;;;;;;0.63;0.63;;;19.50;99.90;;;;;;5005724;28;20227;-76
2022/08/21 05:02:20;;;;;;;1.95;0.70;;;19.50;99.90;;;;;;5003340;28;20227;-77
2022/08/21 05:04:51;;;;;;;0.70;0.70;;;19.40;99.90;;;;;;5032631;22;20228;-77
2022/08/21 05:07:24;;;;;;;0.60;0.55;;;19.50;99.90;;;;;;5013649;28;20679;-76
2022/08/21 05:09:52;;;;;;;1.38;0.70;;;19.70;99.90;;;;;;5012617;28;20216;-77
2022/08/21 05:12:20;;;;;;;0.60;0.60;;;20.00;99.90;;;;;;5014817;28;20200;-76
2022/08/21 05:14:48;;;;;;;0.73;0.73;;;20.30;99.90;;;;;;5014186;28;20310;-77
2022/08/21 05:17:15;;;;;;;0.60;0.60;;;20.60;99.90;;;;;;5015376;28;20232;-77
2022/08/21 05:19:42;;;;;;;0.80;0.80;;;20.80;99.90;;;;;;5011408;28;20247;-76
2022/08/21 05:22:10;;;;;;;0.60;0.60;;;21.00;99.90;;;;;;5014105;28;20205;-77
2022/08/21 05:24:38;;;;;;;0.60;0.60;;;21.20;99.90;;;;;;5011158;28;20232;-77
2022/08/21 05:27:06;;;;;;;0.60;0.60;;;21.40;99.90;;;;;;5009562;28;20223;-77
2022/08/21 05:29:34;;;;;;;0.55;0.55;;;21.50;99.90;;;;;;5011378;28;20216;-77
2022/08/21 05:32:09;;;;;;;0.60;0.60;;;21.50;99.90;;;;;;5015734;28;20211;-77
2022/08/21 05:34:36;;;;;;;0.77;0.60;;;21.80;99.90;;;;;;5013043;28;20224;-77
2022/08/21 05:37:03;;;;;;;0.70;0.70;;;22.00;99.90;;;;;;5011947;28;20200;-77
2022/08/21 05:39:30;;;;;;;0.70;0.70;;;22.30;99.90;;;;;;5012522;28;20227;-77
2022/08/21 05:41:58;;;;;;;0.60;0.60;;;22.40;99.90;;;;;;5011921;28;20678;-77
2022/08/21 05:44:25;;;;;;;1.13;0.70;;;22.50;99.90;;;;;;5014511;28;20223;-77
2022/08/21 05:46:52;;;;;;;0.70;0.70;;;22.70;99.90;;;;;;5012340;28;20204;-77
2022/08/21 05:49:20;;;;;;;0.70;0.70;;;22.90;99.90;;;;;;5013322;28;20200;-76
2022/08/21 05:51:47;;;;;;;0.70;0.70;;;23.00;99.90;;;;;;5010031;28;20655;-77
2022/08/21 05:54:14;;;;;;;0.63;0.63;;;23.00;99.90;;;;;;5013124;28;20220;-76
2022/08/21 05:56:44;;;;;;;0.82;0.60;;;23.10;99.90;;;;;;5009296;28;20200;-77
2022/08/21 05:59:12;;;;;;;0.70;0.70;;;22.90;99.90;;;;;;5009238;28;20227;-77
2022/08/21 06:01:41;;;;;;;0.80;0.80;;;22.80;99.90;;;;;;5012518;28;20204;-77
2022/08/21 06:04:08;;;;;;;0.55;0.55;;;22.80;99.90;;;;;;5012706;28;20236;-77
2022/08/21 06:06:36;;;;;;;0.60;0.60;;;22.90;99.90;;;;;;5016153;28;20227;-76
2022/08/21 06:09:04;;;;;;;0.70;0.70;;;22.90;99.90;;;;;;5008210;28;20211;-77
2022/08/21 06:11:31;;;;;;;1.60;0.65;;;22.80;99.90;;;;;;5013508;28;20224;-77
2022/08/21 06:13:59;;;;;;;1.08;0.98;;;22.80;99.90;;;;;;5011376;28;20259;-76
2022/08/21 06:16:28;;;;;;;0.65;0.65;;;22.90;99.90;;;;;;5012874;28;20220;-77
2022/08/21 06:18:55;;;;;;;0.80;0.80;;;22.90;99.90;;;;;;5015098;28;20224;-76
2022/08/21 06:21:22;;;;;;;0.60;0.60;;;23.00;99.90;;;;;;5014100;28;20247;-77
2022/08/21 06:23:51;;;;;;;0.77;0.77;;;23.00;99.90;;;;;;5014563;28;20220;-77
2022/08/21 06:26:18;;;;;;;0.57;0.57;;;22.80;99.90;;;;;;5012997;28;20228;-76
2022/08/21 06:28:45;;;;;;;0.70;0.70;;;22.80;99.90;;;;;;5011991;28;20196;-77
2022/08/21 06:31:14;;;;;;;0.77;0.77;;;22.80;99.90;;;;;;5009587;28;20299;-77
2022/08/21 06:33:42;;;;;;;1.40;0.85;;;22.80;99.90;;;;;;5012427;28;20216;-77
2022/08/21 06:36:09;;;;;;;0.85;0.77;;;22.80;99.90;;;;;;5011263;28;20231;-77
2022/08/21 06:38:36;;;;;;;0.70;0.65;;;22.90;99.90;;;;;;5014821;28;20225;-76
2022/08/21 06:41:06;;;;;;;0.80;0.80;;;23.10;99.90;;;;;;5010899;28;20225;-77
2022/08/21 06:43:34;;;;;;;0.80;0.80;;;23.50;99.90;;;;;;5012771;28;20224;-77
2022/08/21 06:46:01;;;;;;;0.88;0.70;;;23.80;99.90;;;;;;5011287;28;20225;-77
2022/08/21 06:48:29;;;;;;;1.35;0.70;;;24.00;99.90;;;;;;5009599;28;20193;-77
2022/08/21 06:50:56;;;;;;;1.55;0.60;;;24.30;99.90;;;;;;5016733;28;20235;-76
2022/08/21 06:53:23;;;;;;;0.93;0.88;;;24.40;99.90;;;;;;5012478;28;20307;-77
2022/08/21 06:55:50;;;;;;;1.42;0.93;;;24.40;99.90;;;;;;5015523;28;20235;-77
2022/08/21 06:58:19;;;;;;;0.68;0.68;;;24.20;99.90;;;;;;5013167;28;20216;-76
2022/08/21 07:00:48;;;;;;;0.93;0.65;;;24.40;99.90;;;;;;5012499;28;20220;-77
2022/08/21 07:03:22;;;;;;;0.98;0.70;;;24.60;99.90;;;;;;5011630;28;20227;-77
2022/08/21 07:05:49;;;;;;;0.68;0.68;;;24.90;99.90;;;;;;5014728;28;20220;-76
2022/08/21 07:08:17;;;;;;;0.85;0.68;;;25.10;99.90;;;;;;5009689;28;20215;-77
2022/08/21 07:10:44;;;;;;;0.80;0.80;;;25.40;99.90;;;;;;5012349;28;20224;-77
2022/08/21 07:13:11;;;;;;;0.60;0.60;;;25.50;99.90;;;;;;5014685;28;20343;-77
2022/08/21 07:15:39;;;;;;;0.75;0.60;;;25.70;99.90;;;;;;5013386;28;20219;-77
2022/08/21 07:18:07;;;;;;;0.60;0.60;;;25.70;99.90;;;;;;5012352;28;20223;-76
2022/08/21 07:20:35;;;;;;;0.70;0.70;;;25.60;99.90;;;;;;5006227;28;20223;-75
2022/08/21 07:23:05;;;;;;;0.63;0.60;;;25.60;99.90;;;;;;5008793;28;20201;-76
2022/08/21 07:25:33;;;;;;;0.60;0.60;;;25.70;99.90;;;;;;5012490;28;20781;-75
2022/08/21 07:28:00;;;;;;;0.80;0.80;;;25.70;99.90;;;;;;5007591;28;20204;-76
2022/08/21 07:30:28;;;;;;;0.60;0.60;;;25.60;99.90;;;;;;5009573;28;20679;-76
2022/08/21 07:32:56;;;;;;;0.60;0.60;;;25.60;99.90;;;;;;5007798;28;20216;-76
2022/08/21 07:35:24;;;;;;;0.77;0.77;;;25.70;99.90;;;;;;5009429;28;20224;-75
2022/08/21 07:37:51;;;;;;;0.57;0.57;;;25.90;99.90;;;;;;5008449;28;20212;-76
2022/08/21 07:40:19;;;;;;;0.50;0.50;;;26.20;99.90;;;;;;5004689;28;20729;-74
2022/08/21 07:42:51;;;;;;;0.60;0.60;;;26.50;99.90;;;;;;5004254;28;20204;-75
2022/08/21 07:45:19;;;;;;;0.93;0.70;;;26.40;99.90;;;;;;5010114;28;20298;-76
2022/08/21 07:47:46;;;;;;;0.77;0.77;;;26.40;99.90;;;;;;4996258;28;20196;-76
2022/08/21 07:50:16;;;;;;;0.50;0.50;;;26.30;99.90;;;;;;5001415;28;20216;-77
2022/08/21 07:52:44;;;;;;;0.60;0.60;;;26.00;99.90;;;;;;5005033;28;20663;-77
2022/08/21 07:55:13;;;;;;;0.60;0.60;;;25.90;99.90;;;;;;5010065;28;20231;-77
2022/08/21 07:57:41;;;;;;;0.60;0.60;;;26.10;99.90;;;;;;5009090;28;20215;-77
2022/08/21 08:00:11;;;;;;;0.55;0.55;;;26.20;99.90;;;;;;5010249;28;20261;-77
2022/08/21 08:02:39;;;;;;;0.82;0.70;;;26.40;99.90;;;;;;5008993;28;20220;-77
2022/08/21 08:05:09;;;;;;;0.73;0.63;;;26.20;99.90;;;;;;5008328;28;20243;-77
2022/08/21 08:07:38;;;;;;;0.70;0.70;;;26.00;99.90;;;;;;5011062;28;20191;-76
2022/08/21 08:10:08;;;;;;;0.80;0.60;;;25.80;99.90;;;;;;5008522;28;20216;-76
2022/08/21 08:12:35;;;;;;;0.70;0.70;;;25.70;99.90;;;;;;5007499;28;20199;-76
2022/08/21 08:15:04;;;;;;;0.90;0.60;;;25.60;99.90;;;;;;5006682;28;20229;-76
2022/08/21 08:17:32;;;;;;;0.80;0.80;;;25.50;99.90;;;;;;5009022;28;21376;-76
2022/08/21 08:20:00;;;;;;;0.70;0.70;;;25.50;99.90;;;;;;5012810;28;20255;-76
2022/08/21 08:22:27;;;;;;;2.95;0.90;;;25.50;99.90;;;;;;5011413;28;20207;-76
2022/08/21 08:24:56;;;;;;;0.77;0.70;;;25.50;99.90;;;;;;5013281;28;20574;-77
2022/08/21 08:27:23;;;;;;;0.75;0.75;;;25.90;99.90;;;;;;5011405;28;20204;-77
2022/08/21 08:29:51;;;;;;;1.63;0.70;;;25.80;99.90;;;;;;5011277;28;20274;-76
2022/08/21 08:32:18;;;;;;;0.65;0.65;;;25.80;99.90;;;;;;5010353;28;20200;-76
2022/08/21 08:34:46;;;;;;;0.57;0.55;;;26.00;99.90;;;;;;5005372;28;20224;-76
2022/08/21 08:37:14;;;;;;;0.55;0.55;;;26.20;99.90;;;;;;5008815;28;20202;-77
2022/08/21 08:39:41;;;;;;;0.70;0.70;;;26.60;99.90;;;;;;5010927;28;20223;-77
2022/08/21 08:42:13;;;;;;;0.70;0.70;;;26.70;99.90;;;;;;5013414;28;20207;-76
2022/08/21 08:44:41;;;;;;;0.63;0.60;;;26.90;99.90;;;;;;5012341;28;20224;-77
2022/08/21 08:47:09;;;;;;;0.60;0.60;;;27.10;99.90;;;;;;5015322;28;20238;-76
2022/08/21 08:49:41;;;;;;;0.65;0.65;;;27.20;99.90;;;;;;5011102;28;20251;-77
2022/08/21 08:52:20;;;;;;;1.10;0.73;;;27.30;99.90;;;;;;5014566;28;20204;-76
2022/08/21 08:54:51;;;;;;;0.70;0.70;;;27.40;99.90;;;;;;5015140;28;20227;-77
2022/08/21 08:57:23;;;;;;;0.70;0.70;;;27.50;99.90;;;;;;5015494;28;20219;-76
2022/08/21 08:59:54;;;;;;;1.05;0.60;;;27.70;99.90;;;;;;5011576;28;20459;-77
2022/08/21 09:02:23;;;;;;;0.60;0.60;;;27.60;99.90;;;;;;5015601;28;20203;-76
2022/08/21 09:04:52;;;;;;;0.55;0.55;;;27.60;99.90;;;;;;5013299;28;20286;-77
2022/08/21 09:07:27;;;;;;;0.65;0.65;;;27.60;99.90;;;;;;5013007;28;20208;-77
2022/08/21 09:10:07;;;;;;;0.60;0.60;;;27.40;99.90;;;;;;5010873;28;20215;-77
2022/08/21 09:12:45;;;;;;;0.80;0.80;;;27.40;99.90;;;;;;5013895;28;20600;-78
2022/08/21 09:15:21;;;;;;;0.60;0.60;;;27.50;99.90;;;;;;5014533;28;20220;-77
2022/08/21 09:18:08;;;;;;;0.50;0.50;;;27.50;99.90;;;;;;5013724;28;20215;-76
2022/08/21 09:20:41;;;;;;;0.60;0.60;;;27.80;99.90;;;;;;5012068;28;20217;-76
2022/08/21 09:23:19;;;;;;;0.82;0.60;;;27.80;99.90;;;;;;5010257;28;20724;-77
2022/08/21 09:25:56;;;;;;;0.57;0.57;;;27.80;99.90;;;;;;5012779;28;20220;-77
2022/08/21 09:28:26;;;;;;;1.15;0.57;;;28.20;99.90;;;;;;5015594;28;20259;-76
2022/08/21 09:30:57;;;;;;;0.60;0.55;;;28.40;99.90;;;;;;5010932;28;20228;-77
2022/08/21 09:33:25;;;;;;;1.15;0.60;;;28.50;99.90;;;;;;5013879;28;20231;-77
2022/08/21 09:35:54;;;;;;;0.50;0.50;;;28.40;99.90;;;;;;5016934;28;20738;-77
2022/08/21 09:38:28;;;;;;;0.50;0.50;;;28.30;99.90;;;;;;5012774;28;20200;-78
2022/08/21 09:41:00;;;;;;;0.60;0.60;;;28.50;99.90;;;;;;5016530;28;20216;-77
2022/08/21 09:43:29;;;;;;;0.60;0.60;;;28.50;99.90;;;;;;5013965;28;20212;-77
2022/08/21 09:46:06;;;;;;;0.60;0.60;;;28.40;99.90;;;;;;5013829;28;20225;-76
2022/08/21 09:48:42;;;;;;;0.50;0.50;;;28.30;99.90;;;;;;5014905;28;20200;-76
2022/08/21 09:51:12;;;;;;;0.60;0.60;;;28.30;99.90;;;;;;5013022;28;20234;-77
2022/08/21 09:53:44;;;;;;;0.52;0.52;;;28.40;99.90;;;;;;5015696;28;20698;-77
2022/08/21 09:59:20;;;;;;;0.70;0.50;;;28.70;99.90;;;;;;4992580;28;21802;-77
2022/08/21 10:01:50;;;;;;;0.60;0.60;;;28.80;99.90;;;;;;5013055;28;20215;-77
2022/08/21 10:04:22;;;;;;;0.40;0.40;;;28.90;99.90;;;;;;5016829;28;20233;-77
2022/08/21 10:06:49;;;;;;;0.57;0.57;;;28.80;99.90;;;;;;5012818;28;20220;-77
2022/08/21 10:09:18;;;;;;;0.50;0.50;;;28.90;99.90;;;;;;5016145;28;20215;-77
2022/08/21 10:11:52;;;;;;;0.57;0.50;;;29.00;99.90;;;;;;5013683;28;20286;-78
2022/08/21 10:14:43;;;;;;;0.60;0.60;;;29.10;99.90;;;;;;5013478;28;20710;-77
2022/08/21 10:17:18;;;;;;;0.50;0.50;;;29.20;99.90;;;;;;5014587;28;20243;-77
2022/08/21 10:19:56;;;;;;;1.30;0.60;;;29.20;99.90;;;;;;5016477;28;20259;-77
2022/08/21 10:22:35;;;;;;;0.60;0.60;;;29.20;99.90;;;;;;5014451;28;20199;-77
2022/08/21 10:25:12;;;;;;;1.15;0.50;;;29.50;99.90;;;;;;5014880;28;20232;-78
2022/08/21 10:27:48;;;;;;;0.45;0.45;;;29.70;99.90;;;;;;5010232;28;20262;-77
2022/08/21 10:30:22;;;;;;;1.05;0.60;;;29.90;99.90;;;;;;5009491;28;20224;-77
2022/08/21 10:33:05;;;;;;;0.60;0.60;;;29.90;99.90;;;;;;5014496;28;20578;-77
2022/08/21 10:35:37;;;;;;;1.85;0.60;;;29.80;99.90;;;;;;5017057;28;20220;-76
2022/08/21 10:38:35;;;;;;;0.50;0.50;;;30.00;99.90;;;;;;5006798;28;20208;-77
2022/08/21 10:41:10;;;;;;;0.52;0.52;;;29.90;99.90;;;;;;5002792;28;20223;-77
2022/08/21 10:43:48;;;;;;;0.40;0.40;;;29.50;99.90;;;;;;5003856;28;20219;-78
2022/08/21 10:46:24;;;;;;;0.43;0.40;;;29.40;99.90;;;;;;5012046;28;20595;-77
2022/08/21 10:48:55;;;;;;;0.60;0.60;;;29.60;99.90;;;;;;5008324;28;20196;-77
2022/08/21 10:51:32;;;;;;;0.30;0.30;;;29.70;99.90;;;;;;5008715;28;20235;-78
2022/08/21 10:54:07;;;;;;;0.30;0.30;;;29.90;99.80;;;;;;5006286;28;20220;-77
2022/08/21 10:56:39;;;;;;;0.35;0.35;;;30.00;99.40;;;;;;5011931;28;20219;-78
2022/08/21 10:59:27;;;;;;;0.43;0.43;;;30.20;98.70;;;;;;5008602;28;20264;-77
2022/08/21 11:02:01;;;;;;;0.35;0.35;;;30.30;96.10;;;;;;5004531;28;20222;-77
2022/08/21 11:04:36;;;;;;;1.05;0.40;;;30.10;96.10;;;;;;5017010;22;20248;-83
2022/08/21 11:07:13;;;;;;;0.40;0.40;;;30.10;97.10;;;;;;4979824;28;20196;-80
2022/08/21 11:09:45;;;;;;;0.65;0.30;;;30.20;99.50;;;;;;4979759;28;20231;-80
2022/08/21 11:12:24;;;;;;;0.77;0.50;;;30.50;99.10;;;;;;4986539;28;20207;-77
2022/08/21 11:17:29;;;;;;;0.30;0.30;;;30.90;94.90;;;;;;5003648;28;20212;-80
2022/08/21 11:20:04;;;;;;;1.67;0.30;;;30.80;90.60;;;;;;4998314;28;20896;-79
2022/08/21 11:22:39;;;;;;;0.30;0.30;;;30.80;89.60;;;;;;5002079;28;20223;-78
2022/08/21 11:25:12;;;;;;;0.30;0.30;;;30.50;86.90;;;;;;4987171;28;20239;-81
2022/08/21 11:27:44;;;;;;;0.30;0.30;;;30.60;90.30;;;;;;4987402;28;20201;-76
2022/08/21 11:30:13;;;;;;;0.40;0.40;;;30.70;91.10;;;;;;4988041;28;20217;-74
2022/08/21 11:32:58;;;;;;;0.40;0.40;;;30.80;91.40;;;;;;4987376;28;20201;-79
2022/08/21 11:35:34;;;;;;;0.30;0.30;;;30.90;81.50;;;;;;4987317;28;20234;-78
2022/08/21 11:38:18;;;;;;;0.40;0.30;;;31.00;85.00;;;;;;4983618;28;20197;-76
2022/08/21 11:40:55;;;;;;;0.20;0.20;;;31.00;83.60;;;;;;4985067;28;20217;-78
2022/08/21 11:43:33;;;;;;;0.32;0.32;;;31.10;79.30;;;;;;4985935;28;20213;-79
2022/08/21 11:46:12;;;;;;;0.73;0.50;;;31.10;79.70;;;;;;4987303;28;20244;-77
2022/08/21 11:48:48;;;;;;;0.38;0.38;;;31.10;79.80;;;;;;4986583;28;20206;-78
2022/08/21 11:51:30;;;;;;;0.30;0.30;;;30.90;78.10;;;;;;4987496;28;20223;-73
2022/08/21 11:54:07;;;;;;;0.30;0.30;;;30.90;81.00;;;;;;4980041;28;20445;-80
2022/08/21 11:56:38;;;;;;;0.30;0.30;;;31.20;82.10;;;;;;4986865;28;20229;-75
2022/08/21 11:59:12;;;;;;;0.35;0.20;;;31.50;79.80;;;;;;4984326;28;20224;-76
2022/08/21 12:01:45;;;;;;;0.40;0.40;;;31.70;77.80;;;;;;4982459;28;20234;-81
2022/08/21 12:04:25;;;;;;;0.38;0.38;;;31.40;78.60;;;;;;4977605;28;20219;-79
2022/08/21 12:06:53;;;;;;;0.43;0.30;;;31.50;72.30;;;;;;4984924;28;20668;-77
2022/08/21 12:09:36;;;;;;;0.22;0.22;;;31.30;74.60;;;;;;4984710;28;20196;-74
2022/08/21 12:12:07;;;;;;;0.77;0.40;;;31.30;70.60;;;;;;4983997;28;20598;-78
2022/08/21 12:14:39;;;;;;;0.30;0.30;;;31.30;74.20;;;;;;4979462;28;20229;-76
2022/08/21 12:17:17;;;;;;;0.60;0.30;;;31.40;71.90;;;;;;4979122;28;20275;-75
2022/08/21 12:19:46;;;;;;;0.32;0.32;;;31.30;72.80;;;;;;4976578;28;20224;-77
2022/08/21 12:22:15;;;;;;;0.30;0.30;;;31.40;74.30;;;;;;4981722;28;20338;-79
2022/08/21 12:24:56;;;;;;;0.30;0.30;;;31.50;73.00;;;;;;4976672;28;20220;-77
2022/08/21 12:27:29;;;;;;;0.32;0.32;;;31.70;73.80;;;;;;4979019;28;20213;-82
2022/08/21 12:30:01;;;;;;;0.30;0.30;;;31.80;70.80;;;;;;4983407;28;20229;-81
2022/08/21 12:32:30;;;;;;;0.38;0.38;;;31.80;73.30;;;;;;4981681;28;20216;-78
2022/08/21 12:35:08;;;;;;;0.40;0.40;;;31.80;73.50;;;;;;4976160;28;20228;-79
2022/08/21 12:37:40;;;;;;;0.30;0.30;;;31.80;71.90;;;;;;4982431;28;20204;-83
2022/08/21 12:40:19;;;;;;;0.43;0.30;;;31.80;69.10;;;;;;4978713;28;20754;-79
2022/08/21 12:42:51;;;;;;;0.40;0.30;;;31.80;70.00;;;;;;4996369;28;20201;-75
2022/08/21 12:45:23;;;;;;;0.20;0.20;;;31.80;70.70;;;;;;4989465;28;20319;-76
2022/08/21 12:47:57;;;;;;;0.30;0.30;;;31.90;70.00;;;;;;4988387;28;20211;-71
2022/08/21 12:50:37;;;;;;;0.43;0.40;;;32.00;70.20;;;;;;4990346;28;20696;-78
2022/08/21 12:53:10;;;;;;;0.20;0.20;;;31.90;69.50;;;;;;4986330;28;20212;-76
2022/08/21 12:55:44;;;;;;;0.38;0.38;;;31.80;69.10;;;;;;4989148;28;20268;-71
2022/08/21 12:58:19;;;;;;;2.17;0.40;;;31.90;70.00;;;;;;4993892;28;20199;-77
2022/08/21 13:00:51;;;;;;;0.30;0.30;;;32.00;69.30;;;;;;4992006;28;20259;-76
2022/08/21 13:03:18;;;;;;;0.40;0.40;;;32.00;70.60;;;;;;4999505;28;20204;-73
2022/08/21 13:05:48;;;;;;;0.30;0.30;;;32.00;69.70;;;;;;4993362;28;20227;-77
2022/08/21 13:08:15;;;;;;;0.22;0.22;;;32.10;70.10;;;;;;4990697;28;20197;-76
2022/08/21 13:10:44;;;;;;;0.63;0.40;;;32.20;70.00;;;;;;4997379;28;20218;-73